Pinheiro, Brazil
Current Conditions -  °F | °C
As of 7:00 AM on Wednesday 26 Nov 2014 (Local Time) from SBSL Reporting Station
Clear Clear  
Wind Chill: 82°   Ceiling: Unl
Heat Index: 86°   Visibility: 6mi
Dew Point: 70°   Wind: 14mph
Humidity: 66%   Direction: 70°ENE
Pressure: 29.83"   Gusts: NA
Location:  2.52°S, 45.08°W
Report Text: SBSL 261000Z 07012KT CAVOK 28/21 Q1010
Loading
Personal Weather Stations






























Interactive Weather Map New forecast layout! Learn more

10-Day Weather Forecast

Advertisements
Track Severe Weather on mobile